sensor_id;sensor_type;location;lat;lon;timestamp;pressure;altitude;pressure_sealevel;temperature;humidity
596;BME280;19946;49.306;11.350;2022-10-16T00:01:05;96303.84;;;13.51;100.00
596;BME280;19946;49.306;11.350;2022-10-16T00:04:06;96300.88;;;13.46;100.00
596;BME280;19946;49.306;11.350;2022-10-16T00:07:07;96305.06;;;13.39;100.00
596;BME280;19946;49.306;11.350;2022-10-16T00:10:09;96293.97;;;13.37;100.00
596;BME280;19946;49.306;11.350;2022-10-16T00:13:09;96297.00;;;13.33;100.00
596;BME280;19946;49.306;11.350;2022-10-16T00:16:12;96309.59;;;13.37;100.00
596;BME280;19946;49.306;11.350;2022-10-16T00:19:13;96298.94;;;13.31;100.00
596;BME280;19946;49.306;11.350;2022-10-16T00:22:17;96303.56;;;13.37;100.00
596;BME280;19946;49.306;11.350;2022-10-16T00:25:19;96306.75;;;13.31;100.00
596;BME280;19946;49.306;11.350;2022-10-16T00:28:24;96307.41;;;13.33;100.00
596;BME280;19946;49.306;11.350;2022-10-16T00:31:28;96298.50;;;13.35;100.00
596;BME280;19946;49.306;11.350;2022-10-16T00:34:30;96297.00;;;13.33;100.00
596;BME280;19946;49.306;11.350;2022-10-16T00:37:31;96294.56;;;13.31;100.00
596;BME280;19946;49.306;11.350;2022-10-16T00:40:33;96311.66;;;13.34;100.00
596;BME280;19946;49.306;11.350;2022-10-16T00:43:50;96323.59;;;13.44;100.00
596;BME280;19946;49.306;11.350;2022-10-16T00:46:51;96325.25;;;13.45;100.00
596;BME280;19946;49.306;11.350;2022-10-16T00:49:59;96316.03;;;13.51;100.00
596;BME280;19946;49.306;11.350;2022-10-16T00:53:03;96317.81;;;13.50;100.00
596;BME280;19946;49.306;11.350;2022-10-16T00:56:06;96324.28;;;13.46;100.00
596;BME280;19946;49.306;11.350;2022-10-16T00:59:30;96327.78;;;13.37;100.00
596;BME280;19946;49.306;11.350;2022-10-16T01:02:32;96328.22;;;13.33;100.00
596;BME280;19946;49.306;11.350;2022-10-16T01:05:44;96321.25;;;13.33;100.00
596;BME280;19946;49.306;11.350;2022-10-16T01:12:16;96325.28;;;13.28;100.00
596;BME280;19946;49.306;11.350;2022-10-16T01:15:27;96328.00;;;13.26;100.00
596;BME280;19946;49.306;11.350;2022-10-16T01:18:36;96317.47;;;13.28;100.00
596;BME280;19946;49.306;11.350;2022-10-16T01:21:43;96313.44;;;13.33;100.00
596;BME280;19946;49.306;11.350;2022-10-16T01:24:48;96322.66;;;13.28;100.00
596;BME280;19946;49.306;11.350;2022-10-16T01:27:50;96326.75;;;13.30;100.00
596;BME280;19946;49.306;11.350;2022-10-16T01:30:54;96321.38;;;13.32;100.00
596;BME280;19946;49.306;11.350;2022-10-16T01:34:02;96329.84;;;13.34;100.00
596;BME280;19946;49.306;11.350;2022-10-16T01:37:09;96336.84;;;13.33;100.00
596;BME280;19946;49.306;11.350;2022-10-16T01:40:14;96335.53;;;13.29;100.00
596;BME280;19946;49.306;11.350;2022-10-16T01:43:27;96320.22;;;13.26;100.00
596;BME280;19946;49.306;11.350;2022-10-16T01:46:31;96333.06;;;13.28;100.00
596;BME280;19946;49.306;11.350;2022-10-16T01:49:38;96333.22;;;13.26;100.00
596;BME280;19946;49.306;11.350;2022-10-16T01:52:45;96337.31;;;13.29;100.00
596;BME280;19946;49.306;11.350;2022-10-16T01:55:48;96337.88;;;13.23;100.00
596;BME280;19946;49.306;11.350;2022-10-16T01:58:57;96339.66;;;13.22;100.00
596;BME280;19946;49.306;11.350;2022-10-16T02:02:02;96355.41;;;13.21;100.00
596;BME280;19946;49.306;11.350;2022-10-16T02:05:15;96354.59;;;13.20;100.00
596;BME280;19946;49.306;11.350;2022-10-16T02:08:17;96362.09;;;13.23;100.00
596;BME280;19946;49.306;11.350;2022-10-16T02:11:19;96353.78;;;13.20;100.00
596;BME280;19946;49.306;11.350;2022-10-16T02:14:22;96362.25;;;13.22;100.00
596;BME280;19946;49.306;11.350;2022-10-16T02:17:25;96364.84;;;13.22;100.00
596;BME280;19946;49.306;11.350;2022-10-16T02:20:28;96367.44;;;13.22;100.00
596;BME280;19946;49.306;11.350;2022-10-16T02:23:51;96360.94;;;13.18;100.00
596;BME280;19946;49.306;11.350;2022-10-16T02:30:08;96359.78;;;13.20;100.00
596;BME280;19946;49.306;11.350;2022-10-16T02:33:13;96362.25;;;13.22;100.00
596;BME280;19946;49.306;11.350;2022-10-16T02:36:15;96358.00;;;13.21;100.00
596;BME280;19946;49.306;11.350;2022-10-16T02:39:15;96352.00;;;13.20;100.00
596;BME280;19946;49.306;11.350;2022-10-16T02:42:18;96353.13;;;13.18;100.00
596;BME280;19946;49.306;11.350;2022-10-16T02:45:19;96352.00;;;13.20;100.00
596;BME280;19946;49.306;11.350;2022-10-16T02:48:19;96358.25;;;13.27;100.00
596;BME280;19946;49.306;11.350;2022-10-16T02:51:20;96362.50;;;13.28;100.00
596;BME280;19946;49.306;11.350;2022-10-16T02:54:20;96355.19;;;13.32;100.00
596;BME280;19946;49.306;11.350;2022-10-16T02:57:21;96352.59;;;13.32;100.00
596;BME280;19946;49.306;11.350;2022-10-16T03:00:21;96343.47;;;13.28;100.00
596;BME280;19946;49.306;11.350;2022-10-16T03:03:22;96351.63;;;13.33;100.00
596;BME280;19946;49.306;11.350;2022-10-16T03:06:22;96348.69;;;13.28;100.00
596;BME280;19946;49.306;11.350;2022-10-16T03:09:23;96341.16;;;13.25;100.00
596;BME280;19946;49.306;11.350;2022-10-16T03:12:24;96343.09;;;13.23;100.00
596;BME280;19946;49.306;11.350;2022-10-16T03:15:24;96348.28;;;13.23;100.00
596;BME280;19946;49.306;11.350;2022-10-16T03:18:27;96353.06;;;13.27;100.00
596;BME280;19946;49.306;11.350;2022-10-16T03:21:28;96354.84;;;13.27;100.00
596;BME280;19946;49.306;11.350;2022-10-16T03:24:31;96352.38;;;13.25;100.00
596;BME280;19946;49.306;11.350;2022-10-16T03:27:32;96348.81;;;13.26;100.00
596;BME280;19946;49.306;11.350;2022-10-16T03:30:32;96342.28;;;13.22;100.00
596;BME280;19946;49.306;11.350;2022-10-16T03:33:33;96355.50;;;13.29;100.00
596;BME280;19946;49.306;11.350;2022-10-16T03:36:35;96354.16;;;13.25;100.00
596;BME280;19946;49.306;11.350;2022-10-16T03:39:37;96364.78;;;13.31;100.00
596;BME280;19946;49.306;11.350;2022-10-16T03:42:38;96362.19;;;13.31;100.00
596;BME280;19946;49.306;11.350;2022-10-16T03:45:39;96369.34;;;13.29;100.00
596;BME280;19946;49.306;11.350;2022-10-16T03:48:41;96370.78;;;13.32;100.00
596;BME280;19946;49.306;11.350;2022-10-16T03:51:41;96370.28;;;13.28;100.00
596;BME280;19946;49.306;11.350;2022-10-16T03:54:42;96361.81;;;13.26;100.00
596;BME280;19946;49.306;11.350;2022-10-16T03:57:43;96364.94;;;13.30;100.00
596;BME280;19946;49.306;11.350;2022-10-16T04:00:44;96357.28;;;13.28;100.00
596;BME280;19946;49.306;11.350;2022-10-16T04:03:45;96365.91;;;13.29;100.00
596;BME280;19946;49.306;11.350;2022-10-16T04:06:45;96375.03;;;13.33;100.00
596;BME280;19946;49.306;11.350;2022-10-16T04:09:46;96384.94;;;13.29;100.00
596;BME280;19946;49.306;11.350;2022-10-16T04:12:46;96383.66;;;13.33;100.00
596;BME280;19946;49.306;11.350;2022-10-16T04:15:48;96374.97;;;13.25;100.00
596;BME280;19946;49.306;11.350;2022-10-16T04:18:50;96384.25;;;13.27;100.00
596;BME280;19946;49.306;11.350;2022-10-16T04:21:50;96388.94;;;13.24;100.00
596;BME280;19946;49.306;11.350;2022-10-16T04:24:53;96399.03;;;13.27;100.00
596;BME280;19946;49.306;11.350;2022-10-16T04:27:56;96399.88;;;13.27;100.00
596;BME280;19946;49.306;11.350;2022-10-16T04:30:59;96407.28;;;13.22;100.00
596;BME280;19946;49.306;11.350;2022-10-16T04:34:00;96405.06;;;13.27;100.00
596;BME280;19946;49.306;11.350;2022-10-16T04:37:00;96397.63;;;13.32;100.00
596;BME280;19946;49.306;11.350;2022-10-16T04:40:02;96398.22;;;13.26;100.00
596;BME280;19946;49.306;11.350;2022-10-16T04:43:05;96408.47;;;13.28;100.00
596;BME280;19946;49.306;11.350;2022-10-16T04:46:06;96410.25;;;13.27;100.00
596;BME280;19946;49.306;11.350;2022-10-16T04:49:08;96396.59;;;13.25;100.00
596;BME280;19946;49.306;11.350;2022-10-16T04:52:09;96402.31;;;13.29;100.00
596;BME280;19946;49.306;11.350;2022-10-16T04:55:12;96400.00;;;13.26;100.00
596;BME280;19946;49.306;11.350;2022-10-16T04:58:13;96391.09;;;13.28;100.00
596;BME280;19946;49.306;11.350;2022-10-16T05:01:17;96384.13;;;13.29;100.00
596;BME280;19946;49.306;11.350;2022-10-16T05:04:17;96381.81;;;13.26;100.00
596;BME280;19946;49.306;11.350;2022-10-16T05:07:19;96376.06;;;13.22;100.00
596;BME280;19946;49.306;11.350;2022-10-16T05:10:20;96380.16;;;13.25;100.00
596;BME280;19946;49.306;11.350;2022-10-16T05:13:20;96377.41;;;13.26;100.00
596;BME280;19946;49.306;11.350;2022-10-16T05:16:21;96392.88;;;13.28;100.00
596;BME280;19946;49.306;11.350;2022-10-16T05:19:22;96396.44;;;13.27;100.00
596;BME280;19946;49.306;11.350;2022-10-16T05:22:23;96398.38;;;13.25;100.00
596;BME280;19946;49.306;11.350;2022-10-16T05:25:24;96396.72;;;13.24;100.00
596;BME280;19946;49.306;11.350;2022-10-16T05:28:26;96407.81;;;13.26;100.00
596;BME280;19946;49.306;11.350;2022-10-16T05:31:29;96400.47;;;13.11;100.00
596;BME280;19946;49.306;11.350;2022-10-16T05:34:33;96409.53;;;13.07;100.00
596;BME280;19946;49.306;11.350;2022-10-16T05:37:33;96421.72;;;13.07;100.00
596;BME280;19946;49.306;11.350;2022-10-16T05:40:34;96432.94;;;13.07;100.00
596;BME280;19946;49.306;11.350;2022-10-16T05:43:35;96423.78;;;13.03;100.00
596;BME280;19946;49.306;11.350;2022-10-16T05:46:35;96424.06;;;13.00;100.00
596;BME280;19946;49.306;11.350;2022-10-16T05:49:36;96430.41;;;12.98;100.00
596;BME280;19946;49.306;11.350;2022-10-16T05:52:36;96427.25;;;12.94;100.00
596;BME280;19946;49.306;11.350;2022-10-16T05:55:37;96428.34;;;12.92;100.00
596;BME280;19946;49.306;11.350;2022-10-16T05:58:37;96440.53;;;12.91;100.00
596;BME280;19946;49.306;11.350;2022-10-16T06:01:40;96430.13;;;12.91;100.00
596;BME280;19946;49.306;11.350;2022-10-16T06:04:41;96439.72;;;12.91;100.00
596;BME280;19946;49.306;11.350;2022-10-16T06:07:41;96435.34;;;12.91;100.00
596;BME280;19946;49.306;11.350;2022-10-16T06:10:41;96451.22;;;12.88;100.00
596;BME280;19946;49.306;11.350;2022-10-16T06:13:42;96448.88;;;12.95;100.00
596;BME280;19946;49.306;11.350;2022-10-16T06:16:43;96454.75;;;12.97;100.00
596;BME280;19946;49.306;11.350;2022-10-16T06:19:43;96467.75;;;12.97;100.00
596;BME280;19946;49.306;11.350;2022-10-16T06:22:44;96465.66;;;13.00;100.00
596;BME280;19946;49.306;11.350;2022-10-16T06:25:45;96442.66;;;13.05;100.00
596;BME280;19946;49.306;11.350;2022-10-16T06:28:46;96469.41;;;13.25;100.00
596;BME280;19946;49.306;11.350;2022-10-16T06:31:47;96465.97;;;13.25;100.00
596;BME280;19946;49.306;11.350;2022-10-16T06:34:47;96470.97;;;13.36;100.00
596;BME280;19946;49.306;11.350;2022-10-16T06:37:48;96476.78;;;13.47;100.00
596;BME280;19946;49.306;11.350;2022-10-16T06:40:48;96473.38;;;13.47;100.00
596;BME280;19946;49.306;11.350;2022-10-16T06:43:49;96481.03;;;13.48;100.00
596;BME280;19946;49.306;11.350;2022-10-16T06:46:49;96473.09;;;13.50;100.00
596;BME280;19946;49.306;11.350;2022-10-16T06:49:50;96476.88;;;13.56;100.00
596;BME280;19946;49.306;11.350;2022-10-16T06:52:50;96478.06;;;13.61;100.00
596;BME280;19946;49.306;11.350;2022-10-16T06:55:50;96483.56;;;13.76;100.00
596;BME280;19946;49.306;11.350;2022-10-16T06:58:51;96484.69;;;13.91;100.00
596;BME280;19946;49.306;11.350;2022-10-16T07:01:52;96495.84;;;14.01;100.00
596;BME280;19946;49.306;11.350;2022-10-16T07:04:52;96490.09;;;14.15;100.00
596;BME280;19946;49.306;11.350;2022-10-16T07:07:53;96501.34;;;14.16;100.00
596;BME280;19946;49.306;11.350;2022-10-16T07:11:04;96497.69;;;14.09;100.00
596;BME280;19946;49.306;11.350;2022-10-16T07:14:12;96499.03;;;14.13;100.00
596;BME280;19946;49.306;11.350;2022-10-16T07:17:15;96496.88;;;14.08;100.00
596;BME280;19946;49.306;11.350;2022-10-16T07:20:15;96515.91;;;14.09;100.00
596;BME280;19946;49.306;11.350;2022-10-16T07:23:15;96529.59;;;14.11;100.00
596;BME280;19946;49.306;11.350;2022-10-16T07:26:16;96524.09;;;14.14;100.00
596;BME280;19946;49.306;11.350;2022-10-16T07:29:21;96528.13;;;14.08;100.00
596;BME280;19946;49.306;11.350;2022-10-16T07:32:21;96544.25;;;14.12;100.00
596;BME280;19946;49.306;11.350;2022-10-16T07:35:22;96557.28;;;14.12;100.00
596;BME280;19946;49.306;11.350;2022-10-16T07:38:22;96549.19;;;14.15;100.00
596;BME280;19946;49.306;11.350;2022-10-16T07:41:23;96539.88;;;14.12;100.00
596;BME280;19946;49.306;11.350;2022-10-16T07:44:24;96544.94;;;14.14;100.00
596;BME280;19946;49.306;11.350;2022-10-16T07:47:24;96558.78;;;14.14;100.00
596;BME280;19946;49.306;11.350;2022-10-16T07:50:24;96564.00;;;14.14;100.00
596;BME280;19946;49.306;11.350;2022-10-16T07:53:26;96570.22;;;14.21;100.00
596;BME280;19946;49.306;11.350;2022-10-16T07:56:26;96560.47;;;14.23;100.00
596;BME280;19946;49.306;11.350;2022-10-16T07:59:27;96564.59;;;14.26;100.00
596;BME280;19946;49.306;11.350;2022-10-16T08:02:27;96548.34;;;14.32;100.00
596;BME280;19946;49.306;11.350;2022-10-16T08:05:29;96548.06;;;14.35;100.00
596;BME280;19946;49.306;11.350;2022-10-16T08:08:30;96533.47;;;14.42;100.00
596;BME280;19946;49.306;11.350;2022-10-16T08:11:31;96544.91;;;14.49;100.00
596;BME280;19946;49.306;11.350;2022-10-16T08:14:32;96542.75;;;14.63;100.00
596;BME280;19946;49.306;11.350;2022-10-16T08:17:33;96546.53;;;14.68;100.00
596;BME280;19946;49.306;11.350;2022-10-16T08:20:33;96548.50;;;14.92;100.00
596;BME280;19946;49.306;11.350;2022-10-16T08:23:34;96547.41;;;15.03;100.00
596;BME280;19946;49.306;11.350;2022-10-16T08:26:34;96542.09;;;15.20;100.00
596;BME280;19946;49.306;11.350;2022-10-16T08:29:34;96547.19;;;15.30;100.00
596;BME280;19946;49.306;11.350;2022-10-16T08:32:35;96550.19;;;15.43;100.00
596;BME280;19946;49.306;11.350;2022-10-16T08:35:35;96562.84;;;15.56;100.00
596;BME280;19946;49.306;11.350;2022-10-16T08:38:36;96569.06;;;15.63;100.00
596;BME280;19946;49.306;11.350;2022-10-16T08:45:29;96565.22;;;15.91;100.00
596;BME280;19946;49.306;11.350;2022-10-16T08:48:46;96572.28;;;16.23;100.00
596;BME280;19946;49.306;11.350;2022-10-16T08:51:47;96573.59;;;16.11;100.00
596;BME280;19946;49.306;11.350;2022-10-16T08:54:53;96567.19;;;15.97;100.00
596;BME280;19946;49.306;11.350;2022-10-16T08:57:55;96557.56;;;16.14;100.00
596;BME280;19946;49.306;11.350;2022-10-16T09:00:58;96571.81;;;16.28;100.00
596;BME280;19946;49.306;11.350;2022-10-16T09:08:04;96579.63;;;17.17;100.00
596;BME280;19946;49.306;11.350;2022-10-16T09:21:41;96588.31;;;16.93;100.00
596;BME280;19946;49.306;11.350;2022-10-16T09:24:42;96586.38;;;16.87;100.00
596;BME280;19946;49.306;11.350;2022-10-16T09:27:45;96581.16;;;16.87;100.00
596;BME280;19946;49.306;11.350;2022-10-16T09:30:47;96580.44;;;17.18;100.00
596;BME280;19946;49.306;11.350;2022-10-16T09:33:58;96575.00;;;17.27;100.00
596;BME280;19946;49.306;11.350;2022-10-16T09:37:04;96590.31;;;17.63;100.00
596;BME280;19946;49.306;11.350;2022-10-16T09:40:06;96588.34;;;17.48;100.00
596;BME280;19946;49.306;11.350;2022-10-16T09:43:23;96591.47;;;17.44;100.00
596;BME280;19946;49.306;11.350;2022-10-16T09:46:28;96594.28;;;17.34;100.00
596;BME280;19946;49.306;11.350;2022-10-16T09:49:29;96599.94;;;16.91;100.00
596;BME280;19946;49.306;11.350;2022-10-16T09:52:30;96607.13;;;16.81;100.00
596;BME280;19946;49.306;11.350;2022-10-16T09:55:31;96607.31;;;16.87;100.00
596;BME280;19946;49.306;11.350;2022-10-16T09:58:31;96608.44;;;16.93;100.00
596;BME280;19946;49.306;11.350;2022-10-16T10:01:40;96613.63;;;17.09;100.00
596;BME280;19946;49.306;11.350;2022-10-16T10:04:49;96622.63;;;16.98;100.00
596;BME280;19946;49.306;11.350;2022-10-16T10:07:58;96617.84;;;17.34;100.00
596;BME280;19946;49.306;11.350;2022-10-16T10:10:59;96620.81;;;17.23;100.00
596;BME280;19946;49.306;11.350;2022-10-16T10:14:14;96624.22;;;17.32;100.00
596;BME280;19946;49.306;11.350;2022-10-16T10:17:21;96622.84;;;17.60;100.00
596;BME280;19946;49.306;11.350;2022-10-16T10:23:29;96621.25;;;17.43;100.00
596;BME280;19946;49.306;11.350;2022-10-16T10:26:33;96623.50;;;17.70;100.00
596;BME280;19946;49.306;11.350;2022-10-16T10:29:53;96609.66;;;17.93;100.00
596;BME280;19946;49.306;11.350;2022-10-16T10:33:05;96614.72;;;17.86;100.00
596;BME280;19946;49.306;11.350;2022-10-16T10:36:22;96607.94;;;17.69;100.00
596;BME280;19946;49.306;11.350;2022-10-16T10:39:41;96606.16;;;17.61;100.00
596;BME280;19946;49.306;11.350;2022-10-16T10:42:52;96606.66;;;17.96;100.00
596;BME280;19946;49.306;11.350;2022-10-16T10:45:58;96609.84;;;18.14;100.00
596;BME280;19946;49.306;11.350;2022-10-16T10:56:14;96618.97;;;18.26;100.00
596;BME280;19946;49.306;11.350;2022-10-16T11:02:47;96609.97;;;18.20;100.00
596;BME280;19946;49.306;11.350;2022-10-16T11:06:19;96614.47;;;18.35;100.00
596;BME280;19946;49.306;11.350;2022-10-16T11:09:28;96610.69;;;18.83;100.00
596;BME280;19946;49.306;11.350;2022-10-16T11:12:36;96612.44;;;18.90;100.00
596;BME280;19946;49.306;11.350;2022-10-16T11:15:41;96627.66;;;18.49;100.00
596;BME280;19946;49.306;11.350;2022-10-16T11:25:30;96619.34;;;18.69;100.00
596;BME280;19946;49.306;11.350;2022-10-16T11:28:44;96613.63;;;18.65;100.00
596;BME280;19946;49.306;11.350;2022-10-16T11:31:49;96618.56;;;18.83;100.00
596;BME280;19946;49.306;11.350;2022-10-16T11:35:03;96624.41;;;18.70;100.00
596;BME280;19946;49.306;11.350;2022-10-16T11:38:31;96620.84;;;18.86;100.00
596;BME280;19946;49.306;11.350;2022-10-16T11:41:52;96618.03;;;18.87;100.00
596;BME280;19946;49.306;11.350;2022-10-16T11:51:33;96627.38;;;18.67;100.00
596;BME280;19946;49.306;11.350;2022-10-16T11:54:41;96624.50;;;19.00;100.00
596;BME280;19946;49.306;11.350;2022-10-16T11:57:48;96627.00;;;18.93;100.00
596;BME280;19946;49.306;11.350;2022-10-16T12:04:34;96633.25;;;18.92;100.00
596;BME280;19946;49.306;11.350;2022-10-16T12:07:51;96639.47;;;19.14;100.00
596;BME280;19946;49.306;11.350;2022-10-16T12:11:19;96637.50;;;19.45;100.00
596;BME280;19946;49.306;11.350;2022-10-16T12:14:33;96628.44;;;19.48;100.00
596;BME280;19946;49.306;11.350;2022-10-16T12:17:38;96627.94;;;19.52;100.00
596;BME280;19946;49.306;11.350;2022-10-16T12:20:38;96633.81;;;19.54;100.00
596;BME280;19946;49.306;11.350;2022-10-16T12:23:51;96631.78;;;19.27;100.00
596;BME280;19946;49.306;11.350;2022-10-16T12:26:52;96641.91;;;19.30;100.00
596;BME280;19946;49.306;11.350;2022-10-16T12:29:55;96632.19;;;19.68;100.00
596;BME280;19946;49.306;11.350;2022-10-16T12:33:00;96628.47;;;19.62;100.00
596;BME280;19946;49.306;11.350;2022-10-16T12:36:04;96638.34;;;19.90;100.00
596;BME280;19946;49.306;11.350;2022-10-16T12:39:22;96630.38;;;19.68;100.00
596;BME280;19946;49.306;11.350;2022-10-16T12:45:31;96640.25;;;19.66;100.00
596;BME280;19946;49.306;11.350;2022-10-16T12:48:32;96643.47;;;19.24;100.00
596;BME280;19946;49.306;11.350;2022-10-16T12:51:36;96639.84;;;19.40;100.00
596;BME280;19946;49.306;11.350;2022-10-16T12:54:37;96636.16;;;19.35;100.00
596;BME280;19946;49.306;11.350;2022-10-16T12:58:55;96640.78;;;19.62;100.00
596;BME280;19946;49.306;11.350;2022-10-16T13:08:39;96630.59;;;20.03;100.00
596;BME280;19946;49.306;11.350;2022-10-16T13:11:56;96643.41;;;19.91;100.00
596;BME280;19946;49.306;11.350;2022-10-16T13:28:35;96652.25;;;20.05;100.00
596;BME280;19946;49.306;11.350;2022-10-16T13:31:38;96654.25;;;20.18;100.00
596;BME280;19946;49.306;11.350;2022-10-16T13:34:47;96664.47;;;20.13;100.00
596;BME280;19946;49.306;11.350;2022-10-16T13:37:49;96665.91;;;19.79;100.00
596;BME280;19946;49.306;11.350;2022-10-16T13:41:12;96660.06;;;19.69;100.00
596;BME280;19946;49.306;11.350;2022-10-16T13:44:17;96662.72;;;19.84;100.00
596;BME280;19946;49.306;11.350;2022-10-16T13:47:28;96657.06;;;20.16;100.00
596;BME280;19946;49.306;11.350;2022-10-16T13:50:28;96652.16;;;20.13;100.00
596;BME280;19946;49.306;11.350;2022-10-16T13:53:35;96647.94;;;20.33;100.00
596;BME280;19946;49.306;11.350;2022-10-16T13:56:38;96652.66;;;20.23;100.00
596;BME280;19946;49.306;11.350;2022-10-16T13:59:39;96647.69;;;20.43;100.00
596;BME280;19946;49.306;11.350;2022-10-16T14:02:40;96651.75;;;20.46;100.00
596;BME280;19946;49.306;11.350;2022-10-16T14:05:56;96653.84;;;20.35;100.00
596;BME280;19946;49.306;11.350;2022-10-16T14:09:01;96658.38;;;20.27;100.00
596;BME280;19946;49.306;11.350;2022-10-16T14:12:08;96655.53;;;20.07;100.00
596;BME280;19946;49.306;11.350;2022-10-16T14:15:17;96668.03;;;19.90;100.00
596;BME280;19946;49.306;11.350;2022-10-16T14:18:21;96666.72;;;19.65;100.00
596;BME280;19946;49.306;11.350;2022-10-16T14:21:23;96673.06;;;19.48;100.00
596;BME280;19946;49.306;11.350;2022-10-16T14:24:30;96676.69;;;19.32;100.00
596;BME280;19946;49.306;11.350;2022-10-16T14:27:33;96682.47;;;19.13;100.00
596;BME280;19946;49.306;11.350;2022-10-16T14:30:35;96679.47;;;18.93;100.00
596;BME280;19946;49.306;11.350;2022-10-16T14:33:36;96677.56;;;18.64;100.00
596;BME280;19946;49.306;11.350;2022-10-16T14:36:40;96679.50;;;18.70;100.00
596;BME280;19946;49.306;11.350;2022-10-16T14:39:41;96682.31;;;18.69;100.00
596;BME280;19946;49.306;11.350;2022-10-16T14:42:43;96681.63;;;19.12;100.00
596;BME280;19946;49.306;11.350;2022-10-16T14:45:50;96673.34;;;19.38;100.00
596;BME280;19946;49.306;11.350;2022-10-16T14:48:58;96678.75;;;19.37;100.00
596;BME280;19946;49.306;11.350;2022-10-16T14:52:01;96686.22;;;19.33;100.00
596;BME280;19946;49.306;11.350;2022-10-16T14:55:01;96685.81;;;19.21;100.00
596;BME280;19946;49.306;11.350;2022-10-16T14:58:02;96682.81;;;19.10;100.00
596;BME280;19946;49.306;11.350;2022-10-16T15:01:02;96689.03;;;19.09;100.00
596;BME280;19946;49.306;11.350;2022-10-16T15:04:03;96689.47;;;18.98;100.00
596;BME280;19946;49.306;11.350;2022-10-16T15:07:04;96687.72;;;18.90;100.00
596;BME280;19946;49.306;11.350;2022-10-16T15:10:04;96690.50;;;18.88;100.00
596;BME280;19946;49.306;11.350;2022-10-16T15:13:05;96688.00;;;18.72;100.00
596;BME280;19946;49.306;11.350;2022-10-16T15:16:10;96692.97;;;18.67;100.00
596;BME280;19946;49.306;11.350;2022-10-16T15:19:11;96690.34;;;18.67;100.00
596;BME280;19946;49.306;11.350;2022-10-16T15:22:11;96685.44;;;18.64;100.00
596;BME280;19946;49.306;11.350;2022-10-16T15:28:39;96695.09;;;18.64;100.00
596;BME280;19946;49.306;11.350;2022-10-16T15:31:40;96685.63;;;18.54;100.00
596;BME280;19946;49.306;11.350;2022-10-16T15:34:42;96691.09;;;18.45;100.00
596;BME280;19946;49.306;11.350;2022-10-16T15:37:43;96697.34;;;18.44;100.00
596;BME280;19946;49.306;11.350;2022-10-16T15:40:43;96691.59;;;18.40;100.00
596;BME280;19946;49.306;11.350;2022-10-16T15:43:44;96696.41;;;18.37;100.00
596;BME280;19946;49.306;11.350;2022-10-16T15:46:45;96698.22;;;18.28;100.00
596;BME280;19946;49.306;11.350;2022-10-16T15:49:45;96702.09;;;18.09;100.00
596;BME280;19946;49.306;11.350;2022-10-16T15:52:46;96701.47;;;17.99;100.00
596;BME280;19946;49.306;11.350;2022-10-16T15:55:46;96720.97;;;17.97;100.00
596;BME280;19946;49.306;11.350;2022-10-16T15:58:46;96717.25;;;17.83;100.00
596;BME280;19946;49.306;11.350;2022-10-16T16:01:47;96716.97;;;17.70;100.00
596;BME280;19946;49.306;11.350;2022-10-16T16:04:47;96716.28;;;17.60;100.00
596;BME280;19946;49.306;11.350;2022-10-16T16:07:48;96716.00;;;17.63;100.00
596;BME280;19946;49.306;11.350;2022-10-16T16:10:59;96716.78;;;17.55;100.00
596;BME280;19946;49.306;11.350;2022-10-16T16:14:00;96723.97;;;17.53;100.00
596;BME280;19946;49.306;11.350;2022-10-16T16:17:00;96719.25;;;17.48;100.00
596;BME280;19946;49.306;11.350;2022-10-16T16:20:03;96726.50;;;17.30;100.00
596;BME280;19946;49.306;11.350;2022-10-16T16:23:04;96723.53;;;17.25;100.00
596;BME280;19946;49.306;11.350;2022-10-16T16:26:21;96724.19;;;17.27;100.00
596;BME280;19946;49.306;11.350;2022-10-16T16:29:26;96738.56;;;17.23;100.00
596;BME280;19946;49.306;11.350;2022-10-16T16:32:26;96736.28;;;17.20;100.00
596;BME280;19946;49.306;11.350;2022-10-16T16:35:26;96728.44;;;17.12;100.00
596;BME280;19946;49.306;11.350;2022-10-16T16:38:27;96733.19;;;17.08;100.00
596;BME280;19946;49.306;11.350;2022-10-16T16:41:28;96747.56;;;17.04;100.00
596;BME280;19946;49.306;11.350;2022-10-16T16:44:30;96742.66;;;16.93;100.00
596;BME280;19946;49.306;11.350;2022-10-16T16:47:30;96747.69;;;16.78;100.00
596;BME280;19946;49.306;11.350;2022-10-16T16:50:35;96747.53;;;16.72;100.00
596;BME280;19946;49.306;11.350;2022-10-16T16:53:36;96752.09;;;16.62;100.00
596;BME280;19946;49.306;11.350;2022-10-16T16:56:36;96753.84;;;16.53;100.00
596;BME280;19946;49.306;11.350;2022-10-16T16:59:36;96761.97;;;16.42;100.00
596;BME280;19946;49.306;11.350;2022-10-16T17:02:37;96767.94;;;16.26;100.00
596;BME280;19946;49.306;11.350;2022-10-16T17:05:43;96773.47;;;16.23;100.00
596;BME280;19946;49.306;11.350;2022-10-16T17:08:43;96778.00;;;16.13;100.00
596;BME280;19946;49.306;11.350;2022-10-16T17:11:44;96781.69;;;16.02;100.00
596;BME280;19946;49.306;11.350;2022-10-16T17:14:45;96783.25;;;15.61;100.00
596;BME280;19946;49.306;11.350;2022-10-16T17:17:46;96792.25;;;15.49;100.00
596;BME280;19946;49.306;11.350;2022-10-16T17:20:46;96794.06;;;15.49;100.00
596;BME280;19946;49.306;11.350;2022-10-16T17:23:50;96796.16;;;15.27;100.00
596;BME280;19946;49.306;11.350;2022-10-16T17:26:51;96794.22;;;15.29;100.00
596;BME280;19946;49.306;11.350;2022-10-16T17:29:51;96802.22;;;15.46;100.00
596;BME280;19946;49.306;11.350;2022-10-16T17:32:52;96799.97;;;15.33;100.00
596;BME280;19946;49.306;11.350;2022-10-16T17:35:52;96793.56;;;15.27;100.00